sensor_id;sensor_type;location;lat;lon;timestamp;pressure;altitude;pressure_sealevel;temperature;humidity
62055;BME280;48653;51.742;-1.256;2023-12-29T00:00:03;99843.55;;;7.16;57.41
62055;BME280;48653;51.742;-1.256;2023-12-29T00:03:45;99839.46;;;5.89;58.62
62055;BME280;48653;51.742;-1.256;2023-12-29T00:06:10;99837.92;;;7.41;56.94
62055;BME280;48653;51.742;-1.256;2023-12-29T00:08:37;99834.53;;;7.61;56.32
62055;BME280;48653;51.742;-1.256;2023-12-29T00:11:02;99838.08;;;6.82;57.98
62055;BME280;48653;51.742;-1.256;2023-12-29T00:13:27;99846.76;;;6.95;58.66
62055;BME280;48653;51.742;-1.256;2023-12-29T00:15:54;99844.22;;;6.67;59.42
62055;BME280;48653;51.742;-1.256;2023-12-29T00:18:18;99836.09;;;6.24;60.81
62055;BME280;48653;51.742;-1.256;2023-12-29T00:20:43;99840.41;;;6.07;61.15
62055;BME280;48653;51.742;-1.256;2023-12-29T00:23:09;99835.61;;;6.66;60.81
62055;BME280;48653;51.742;-1.256;2023-12-29T00:25:36;99832.02;;;6.98;59.26
62055;BME280;48653;51.742;-1.256;2023-12-29T00:28:00;99830.42;;;6.91;58.63
62055;BME280;48653;51.742;-1.256;2023-12-29T00:30:25;99841.06;;;6.62;59.10
62055;BME280;48653;51.742;-1.256;2023-12-29T00:32:51;99843.68;;;7.09;57.71
62055;BME280;48653;51.742;-1.256;2023-12-29T00:35:17;99851.97;;;6.95;58.29
62055;BME280;48653;51.742;-1.256;2023-12-29T00:37:42;99855.38;;;7.21;57.74
62055;BME280;48653;51.742;-1.256;2023-12-29T00:40:08;99857.77;;;7.20;56.67
62055;BME280;48653;51.742;-1.256;2023-12-29T00:42:33;99860.25;;;7.50;56.73
62055;BME280;48653;51.742;-1.256;2023-12-29T00:44:58;99856.72;;;6.71;58.54
62055;BME280;48653;51.742;-1.256;2023-12-29T00:47:23;99849.32;;;6.93;58.32
62055;BME280;48653;51.742;-1.256;2023-12-29T00:49:49;99848.27;;;6.50;59.47
62055;BME280;48653;51.742;-1.256;2023-12-29T00:52:14;99841.65;;;7.02;58.66
62055;BME280;48653;51.742;-1.256;2023-12-29T00:54:40;99840.18;;;6.87;57.93
62055;BME280;48653;51.742;-1.256;2023-12-29T00:57:05;99836.38;;;6.88;58.59
62055;BME280;48653;51.742;-1.256;2023-12-29T00:59:30;99833.20;;;7.00;58.63
62055;BME280;48653;51.742;-1.256;2023-12-29T01:01:55;99827.84;;;7.12;58.52
62055;BME280;48653;51.742;-1.256;2023-12-29T01:04:21;99827.72;;;7.01;58.32
62055;BME280;48653;51.742;-1.256;2023-12-29T01:06:46;99833.40;;;7.35;57.05
62055;BME280;48653;51.742;-1.256;2023-12-29T01:09:12;99831.60;;;6.95;57.79
62055;BME280;48653;51.742;-1.256;2023-12-29T01:11:37;99832.62;;;7.37;56.98
62055;BME280;48653;51.742;-1.256;2023-12-29T01:14:03;99843.35;;;7.25;57.08
62055;BME280;48653;51.742;-1.256;2023-12-29T01:16:28;99855.44;;;6.91;59.71
62055;BME280;48653;51.742;-1.256;2023-12-29T01:18:53;99845.81;;;6.49;60.81
62055;BME280;48653;51.742;-1.256;2023-12-29T01:21:18;99841.56;;;7.55;58.13
62055;BME280;48653;51.742;-1.256;2023-12-29T01:23:44;99826.58;;;6.67;59.29
62055;BME280;48653;51.742;-1.256;2023-12-29T01:26:09;99819.13;;;6.88;58.24
62055;BME280;48653;51.742;-1.256;2023-12-29T01:28:35;99824.22;;;7.26;57.73
62055;BME280;48653;51.742;-1.256;2023-12-29T01:31:05;99818.18;;;6.96;58.21
62055;BME280;48653;51.742;-1.256;2023-12-29T01:33:26;99817.42;;;7.08;56.77
62055;BME280;48653;51.742;-1.256;2023-12-29T01:35:52;99814.27;;;7.34;57.07
62055;BME280;48653;51.742;-1.256;2023-12-29T01:38:16;99818.49;;;6.76;58.02
62055;BME280;48653;51.742;-1.256;2023-12-29T01:40:44;99817.72;;;6.51;59.55
62055;BME280;48653;51.742;-1.256;2023-12-29T01:43:07;99816.09;;;6.63;59.71
62055;BME280;48653;51.742;-1.256;2023-12-29T01:45:32;99809.67;;;7.25;58.54
62055;BME280;48653;51.742;-1.256;2023-12-29T01:47:57;99816.38;;;6.66;58.64
62055;BME280;48653;51.742;-1.256;2023-12-29T01:50:22;99816.65;;;7.08;57.90
62055;BME280;48653;51.742;-1.256;2023-12-29T01:52:49;99811.46;;;7.32;57.40
62055;BME280;48653;51.742;-1.256;2023-12-29T01:55:17;99813.88;;;7.04;57.91
62055;BME280;48653;51.742;-1.256;2023-12-29T01:57:39;99823.94;;;7.31;57.48
62055;BME280;48653;51.742;-1.256;2023-12-29T02:00:06;99830.50;;;7.79;55.98
62055;BME280;48653;51.742;-1.256;2023-12-29T02:02:30;99827.57;;;7.49;56.86
62055;BME280;48653;51.742;-1.256;2023-12-29T02:04:55;99824.01;;;7.07;58.57
62055;BME280;48653;51.742;-1.256;2023-12-29T02:07:20;99820.85;;;7.24;58.30
62055;BME280;48653;51.742;-1.256;2023-12-29T02:09:45;99817.32;;;7.15;58.51
62055;BME280;48653;51.742;-1.256;2023-12-29T02:12:10;99813.93;;;7.10;58.37
62055;BME280;48653;51.742;-1.256;2023-12-29T02:14:36;99827.11;;;7.76;56.91
62055;BME280;48653;51.742;-1.256;2023-12-29T02:17:07;99827.58;;;7.35;57.83
62055;BME280;48653;51.742;-1.256;2023-12-29T02:19:37;99817.06;;;7.92;56.74
62055;BME280;48653;51.742;-1.256;2023-12-29T02:21:52;99823.88;;;7.59;57.57
62055;BME280;48653;51.742;-1.256;2023-12-29T02:24:17;99819.36;;;7.20;58.55
62055;BME280;48653;51.742;-1.256;2023-12-29T02:26:47;99823.66;;;7.53;58.04
62055;BME280;48653;51.742;-1.256;2023-12-29T02:29:09;99816.11;;;7.35;57.83
62055;BME280;48653;51.742;-1.256;2023-12-29T02:31:34;99801.54;;;7.29;59.44
62055;BME280;48653;51.742;-1.256;2023-12-29T02:34:00;99840.80;;;7.86;58.88
62055;BME280;48653;51.742;-1.256;2023-12-29T02:36:24;99847.83;;;7.43;59.10
62055;BME280;48653;51.742;-1.256;2023-12-29T02:38:50;99869.83;;;7.42;59.90
62055;BME280;48653;51.742;-1.256;2023-12-29T02:41:15;99867.01;;;7.13;61.16
62055;BME280;48653;51.742;-1.256;2023-12-29T02:43:40;99855.67;;;8.16;58.67
62055;BME280;48653;51.742;-1.256;2023-12-29T02:46:06;99853.15;;;8.45;58.58
62055;BME280;48653;51.742;-1.256;2023-12-29T02:48:32;99841.03;;;7.79;59.28
62055;BME280;48653;51.742;-1.256;2023-12-29T02:50:57;99846.03;;;8.01;58.72
62055;BME280;48653;51.742;-1.256;2023-12-29T02:53:22;99836.82;;;8.20;58.75
62055;BME280;48653;51.742;-1.256;2023-12-29T02:55:47;99835.12;;;8.19;57.96
62055;BME280;48653;51.742;-1.256;2023-12-29T02:58:18;99829.58;;;8.19;57.86
62055;BME280;48653;51.742;-1.256;2023-12-29T03:00:39;99830.49;;;7.51;59.15
62055;BME280;48653;51.742;-1.256;2023-12-29T03:03:04;99832.23;;;7.38;60.15
62055;BME280;48653;51.742;-1.256;2023-12-29T03:05:28;99829.13;;;6.93;62.21
62055;BME280;48653;51.742;-1.256;2023-12-29T03:07:54;99815.92;;;7.29;61.22
62055;BME280;48653;51.742;-1.256;2023-12-29T03:10:20;99822.25;;;7.20;61.60
62055;BME280;48653;51.742;-1.256;2023-12-29T03:12:44;99821.84;;;6.74;61.73
62055;BME280;48653;51.742;-1.256;2023-12-29T03:15:10;99826.29;;;6.90;62.20
62055;BME280;48653;51.742;-1.256;2023-12-29T03:17:35;99825.79;;;6.78;63.26
62055;BME280;48653;51.742;-1.256;2023-12-29T03:20:00;99821.62;;;7.10;63.15
62055;BME280;48653;51.742;-1.256;2023-12-29T03:22:25;99819.43;;;6.87;61.93
62055;BME280;48653;51.742;-1.256;2023-12-29T03:24:50;99807.96;;;7.27;61.86
62055;BME280;48653;51.742;-1.256;2023-12-29T03:27:15;99807.88;;;7.31;61.69
62055;BME280;48653;51.742;-1.256;2023-12-29T03:29:40;99800.77;;;6.68;62.97
62055;BME280;48653;51.742;-1.256;2023-12-29T03:32:06;99803.23;;;7.33;60.73
62055;BME280;48653;51.742;-1.256;2023-12-29T03:34:31;99804.90;;;7.26;60.16
62055;BME280;48653;51.742;-1.256;2023-12-29T03:37:01;99799.02;;;7.58;59.37
62055;BME280;48653;51.742;-1.256;2023-12-29T03:39:22;99798.12;;;6.87;61.09
62055;BME280;48653;51.742;-1.256;2023-12-29T03:41:47;99801.10;;;7.45;60.42
62055;BME280;48653;51.742;-1.256;2023-12-29T03:44:12;99793.12;;;7.06;61.42
62055;BME280;48653;51.742;-1.256;2023-12-29T03:46:39;99787.75;;;7.06;60.79
62055;BME280;48653;51.742;-1.256;2023-12-29T03:49:03;99787.58;;;6.97;60.51
62055;BME280;48653;51.742;-1.256;2023-12-29T03:51:28;99777.82;;;7.00;60.79
62055;BME280;48653;51.742;-1.256;2023-12-29T03:53:54;99763.42;;;6.37;61.67
62055;BME280;48653;51.742;-1.256;2023-12-29T03:56:19;99755.01;;;6.51;61.48
62055;BME280;48653;51.742;-1.256;2023-12-29T03:58:45;99753.74;;;7.06;60.58
62055;BME280;48653;51.742;-1.256;2023-12-29T04:01:11;99751.76;;;7.32;60.19
62055;BME280;48653;51.742;-1.256;2023-12-29T04:03:36;99748.38;;;7.39;59.40
62055;BME280;48653;51.742;-1.256;2023-12-29T04:06:01;99753.84;;;6.77;60.53
62055;BME280;48653;51.742;-1.256;2023-12-29T04:08:26;99762.81;;;6.88;60.96
62055;BME280;48653;51.742;-1.256;2023-12-29T04:10:52;99756.59;;;6.93;61.19
62055;BME280;48653;51.742;-1.256;2023-12-29T04:13:17;99759.38;;;6.99;61.62
62055;BME280;48653;51.742;-1.256;2023-12-29T04:15:42;99766.86;;;7.31;60.73
62055;BME280;48653;51.742;-1.256;2023-12-29T04:18:07;99763.70;;;6.36;62.89
62055;BME280;48653;51.742;-1.256;2023-12-29T04:20:33;99770.59;;;6.88;61.14
62055;BME280;48653;51.742;-1.256;2023-12-29T04:22:58;99763.64;;;6.28;63.57
62055;BME280;48653;51.742;-1.256;2023-12-29T04:25:23;99761.88;;;6.25;63.96
62055;BME280;48653;51.742;-1.256;2023-12-29T04:27:48;99762.18;;;6.78;62.52
62055;BME280;48653;51.742;-1.256;2023-12-29T04:30:14;99761.58;;;6.59;62.87
62055;BME280;48653;51.742;-1.256;2023-12-29T04:32:39;99762.57;;;6.86;62.44
62055;BME280;48653;51.742;-1.256;2023-12-29T04:35:05;99769.18;;;7.05;61.06
62055;BME280;48653;51.742;-1.256;2023-12-29T04:37:30;99775.36;;;6.93;61.24
62055;BME280;48653;51.742;-1.256;2023-12-29T04:39:55;99768.67;;;7.15;61.19
62055;BME280;48653;51.742;-1.256;2023-12-29T04:42:20;99763.80;;;6.56;62.93
62055;BME280;48653;51.742;-1.256;2023-12-29T04:44:46;99756.23;;;6.80;62.45
62055;BME280;48653;51.742;-1.256;2023-12-29T04:47:11;99755.03;;;6.64;62.54
62055;BME280;48653;51.742;-1.256;2023-12-29T04:49:37;99763.11;;;7.00;62.06
62055;BME280;48653;51.742;-1.256;2023-12-29T04:52:03;99769.65;;;6.96;60.66
62055;BME280;48653;51.742;-1.256;2023-12-29T04:54:32;99776.81;;;7.33;60.81
62055;BME280;48653;51.742;-1.256;2023-12-29T04:56:52;99775.91;;;7.16;60.84
62055;BME280;48653;51.742;-1.256;2023-12-29T04:59:17;99775.12;;;6.82;61.26
62055;BME280;48653;51.742;-1.256;2023-12-29T05:01:43;99777.28;;;7.19;59.84
62055;BME280;48653;51.742;-1.256;2023-12-29T05:04:11;99779.16;;;6.47;61.12
62055;BME280;48653;51.742;-1.256;2023-12-29T05:06:35;99786.25;;;6.48;61.01
62055;BME280;48653;51.742;-1.256;2023-12-29T05:09:00;99781.50;;;6.96;60.05
62055;BME280;48653;51.742;-1.256;2023-12-29T05:11:25;99790.76;;;6.55;60.73
62055;BME280;48653;51.742;-1.256;2023-12-29T05:13:50;99795.69;;;6.43;61.31
62055;BME280;48653;51.742;-1.256;2023-12-29T05:16:15;99795.07;;;6.86;60.16
62055;BME280;48653;51.742;-1.256;2023-12-29T05:18:40;99790.92;;;7.15;59.49
62055;BME280;48653;51.742;-1.256;2023-12-29T05:21:15;99787.19;;;7.28;59.27
62055;BME280;48653;51.742;-1.256;2023-12-29T05:23:30;99792.17;;;7.49;58.44
62055;BME280;48653;51.742;-1.256;2023-12-29T05:25:56;99789.13;;;8.02;57.76
62055;BME280;48653;51.742;-1.256;2023-12-29T05:28:21;99796.48;;;6.61;61.16
62055;BME280;48653;51.742;-1.256;2023-12-29T05:30:46;99790.71;;;7.86;58.19
62055;BME280;48653;51.742;-1.256;2023-12-29T05:33:12;99800.06;;;7.90;57.70
62055;BME280;48653;51.742;-1.256;2023-12-29T05:35:37;99803.86;;;7.24;59.18
62055;BME280;48653;51.742;-1.256;2023-12-29T05:38:03;99806.54;;;7.34;58.92
62055;BME280;48653;51.742;-1.256;2023-12-29T05:40:29;99802.32;;;8.32;56.35
62055;BME280;48653;51.742;-1.256;2023-12-29T05:42:53;99815.08;;;7.58;58.02
62055;BME280;48653;51.742;-1.256;2023-12-29T05:45:18;99826.11;;;7.84;57.68
62055;BME280;48653;51.742;-1.256;2023-12-29T05:47:43;99820.92;;;7.23;59.43
62055;BME280;48653;51.742;-1.256;2023-12-29T05:50:09;99822.51;;;7.29;59.37
62055;BME280;48653;51.742;-1.256;2023-12-29T05:52:34;99824.28;;;7.59;59.02
62055;BME280;48653;51.742;-1.256;2023-12-29T05:54:59;99825.11;;;7.94;57.66
62055;BME280;48653;51.742;-1.256;2023-12-29T05:57:24;99837.70;;;6.61;60.33
62055;BME280;48653;51.742;-1.256;2023-12-29T05:59:49;99837.19;;;6.62;60.52
62055;BME280;48653;51.742;-1.256;2023-12-29T06:02:14;99834.99;;;7.39;59.59
62055;BME280;48653;51.742;-1.256;2023-12-29T06:04:40;99836.62;;;7.52;58.97
62055;BME280;48653;51.742;-1.256;2023-12-29T06:07:05;99828.57;;;7.15;59.50
62055;BME280;48653;51.742;-1.256;2023-12-29T06:09:30;99824.49;;;7.39;58.68
62055;BME280;48653;51.742;-1.256;2023-12-29T06:11:55;99821.49;;;7.68;57.70
62055;BME280;48653;51.742;-1.256;2023-12-29T06:14:20;99827.95;;;7.17;58.70
62055;BME280;48653;51.742;-1.256;2023-12-29T06:16:46;99830.28;;;7.61;57.57
62055;BME280;48653;51.742;-1.256;2023-12-29T06:19:10;99836.85;;;7.06;58.88
62055;BME280;48653;51.742;-1.256;2023-12-29T06:21:41;99836.11;;;7.41;58.32
62055;BME280;48653;51.742;-1.256;2023-12-29T06:24:01;99829.83;;;7.66;57.42
62055;BME280;48653;51.742;-1.256;2023-12-29T06:26:26;99830.93;;;8.20;56.22
62055;BME280;48653;51.742;-1.256;2023-12-29T06:28:51;99835.36;;;7.03;58.64
62055;BME280;48653;51.742;-1.256;2023-12-29T06:31:17;99835.74;;;6.54;60.76
62055;BME280;48653;51.742;-1.256;2023-12-29T06:33:41;99840.42;;;7.45;57.67
62055;BME280;48653;51.742;-1.256;2023-12-29T06:36:07;99838.99;;;7.96;56.04
62055;BME280;48653;51.742;-1.256;2023-12-29T06:38:32;99841.99;;;7.49;57.03
62055;BME280;48653;51.742;-1.256;2023-12-29T06:41:03;99852.77;;;7.52;56.03
62055;BME280;48653;51.742;-1.256;2023-12-29T06:43:22;99840.35;;;7.85;55.63
62055;BME280;48653;51.742;-1.256;2023-12-29T06:45:48;99847.87;;;8.13;54.73
62055;BME280;48653;51.742;-1.256;2023-12-29T06:48:13;99844.55;;;7.84;55.34
62055;BME280;48653;51.742;-1.256;2023-12-29T06:50:40;99846.98;;;7.99;55.19
62055;BME280;48653;51.742;-1.256;2023-12-29T06:53:04;99851.25;;;7.23;55.72
62055;BME280;48653;51.742;-1.256;2023-12-29T06:55:28;99845.65;;;7.81;55.42
62055;BME280;48653;51.742;-1.256;2023-12-29T06:57:54;99847.58;;;7.53;55.69
62055;BME280;48653;51.742;-1.256;2023-12-29T07:00:19;99851.08;;;7.23;57.31
62055;BME280;48653;51.742;-1.256;2023-12-29T07:02:44;99854.68;;;7.32;56.63
62055;BME280;48653;51.742;-1.256;2023-12-29T07:05:09;99860.30;;;7.60;55.74
62055;BME280;48653;51.742;-1.256;2023-12-29T07:07:34;99856.64;;;6.95;56.74
62055;BME280;48653;51.742;-1.256;2023-12-29T07:09:59;99867.91;;;7.15;56.34
62055;BME280;48653;51.742;-1.256;2023-12-29T07:12:24;99869.15;;;8.02;54.27
62055;BME280;48653;51.742;-1.256;2023-12-29T07:14:50;99861.17;;;7.24;55.48
62055;BME280;48653;51.742;-1.256;2023-12-29T07:17:14;99859.73;;;7.13;55.40
62055;BME280;48653;51.742;-1.256;2023-12-29T07:19:40;99862.27;;;6.54;56.95
62055;BME280;48653;51.742;-1.256;2023-12-29T07:22:05;99859.40;;;6.55;56.37
62055;BME280;48653;51.742;-1.256;2023-12-29T07:24:31;99854.74;;;7.22;54.78
62055;BME280;48653;51.742;-1.256;2023-12-29T07:26:56;99856.94;;;7.49;54.00
62055;BME280;48653;51.742;-1.256;2023-12-29T07:29:21;99857.20;;;6.58;57.18
62055;BME280;48653;51.742;-1.256;2023-12-29T07:31:46;99857.21;;;7.32;54.97
62055;BME280;48653;51.742;-1.256;2023-12-29T07:34:11;99854.67;;;6.69;56.29
62055;BME280;48653;51.742;-1.256;2023-12-29T07:36:38;99853.22;;;6.51;56.80
62055;BME280;48653;51.742;-1.256;2023-12-29T07:39:01;99859.44;;;6.16;58.43
62055;BME280;48653;51.742;-1.256;2023-12-29T07:41:26;99864.84;;;7.01;56.77
62055;BME280;48653;51.742;-1.256;2023-12-29T07:43:52;99862.86;;;6.79;57.12
62055;BME280;48653;51.742;-1.256;2023-12-29T07:46:25;99860.00;;;7.22;55.64
62055;BME280;48653;51.742;-1.256;2023-12-29T07:48:42;99861.28;;;6.85;55.93
62055;BME280;48653;51.742;-1.256;2023-12-29T07:51:07;99865.16;;;6.72;56.08
62055;BME280;48653;51.742;-1.256;2023-12-29T07:53:32;99866.42;;;7.02;56.47
62055;BME280;48653;51.742;-1.256;2023-12-29T07:55:58;99868.15;;;6.75;56.82
62055;BME280;48653;51.742;-1.256;2023-12-29T07:58:23;99865.44;;;6.86;56.71
62055;BME280;48653;51.742;-1.256;2023-12-29T08:00:49;99867.80;;;7.71;54.57
62055;BME280;48653;51.742;-1.256;2023-12-29T08:03:14;99871.19;;;7.57;54.87
62055;BME280;48653;51.742;-1.256;2023-12-29T08:05:39;99867.12;;;7.32;55.45
62055;BME280;48653;51.742;-1.256;2023-12-29T08:08:05;99870.51;;;6.96;56.49
62055;BME280;48653;51.742;-1.256;2023-12-29T08:10:30;99879.22;;;7.08;56.42
62055;BME280;48653;51.742;-1.256;2023-12-29T08:12:55;99874.95;;;6.70;57.29
62055;BME280;48653;51.742;-1.256;2023-12-29T08:15:20;99880.34;;;7.03;56.83
62055;BME280;48653;51.742;-1.256;2023-12-29T08:17:45;99884.91;;;6.68;58.24
62055;BME280;48653;51.742;-1.256;2023-12-29T08:20:12;99887.08;;;6.70;58.35
62055;BME280;48653;51.742;-1.256;2023-12-29T08:22:36;99883.93;;;7.16;57.16
62055;BME280;48653;51.742;-1.256;2023-12-29T08:25:00;99891.79;;;6.54;58.40
62055;BME280;48653;51.742;-1.256;2023-12-29T08:27:26;99893.67;;;7.37;58.03
62055;BME280;48653;51.742;-1.256;2023-12-29T08:29:56;99904.25;;;6.27;61.37
62055;BME280;48653;51.742;-1.256;2023-12-29T08:32:17;99900.73;;;6.51;60.67
62055;BME280;48653;51.742;-1.256;2023-12-29T08:34:42;99897.26;;;6.52;61.29
62055;BME280;48653;51.742;-1.256;2023-12-29T08:37:08;99902.32;;;7.06;58.31
62055;BME280;48653;51.742;-1.256;2023-12-29T08:39:33;99905.06;;;7.28;58.16
62055;BME280;48653;51.742;-1.256;2023-12-29T08:41:58;99904.38;;;6.31;61.07
62055;BME280;48653;51.742;-1.256;2023-12-29T08:44:24;99909.05;;;6.56;60.92
62055;BME280;48653;51.742;-1.256;2023-12-29T08:46:51;99919.14;;;6.77;60.19
62055;BME280;48653;51.742;-1.256;2023-12-29T08:49:15;99924.02;;;7.65;58.53
62055;BME280;48653;51.742;-1.256;2023-12-29T08:51:40;99924.37;;;7.41;58.40
62055;BME280;48653;51.742;-1.256;2023-12-29T08:54:05;99917.75;;;7.16;58.89
62055;BME280;48653;51.742;-1.256;2023-12-29T08:56:31;99921.63;;;7.63;57.96
62055;BME280;48653;51.742;-1.256;2023-12-29T08:58:57;99916.31;;;7.05;59.45
62055;BME280;48653;51.742;-1.256;2023-12-29T09:01:22;99916.69;;;7.44;58.41
62055;BME280;48653;51.742;-1.256;2023-12-29T09:03:50;99927.87;;;6.78;59.15
62055;BME280;48653;51.742;-1.256;2023-12-29T09:06:12;99926.01;;;7.24;58.77
62055;BME280;48653;51.742;-1.256;2023-12-29T09:08:37;99930.28;;;6.90;58.09
62055;BME280;48653;51.742;-1.256;2023-12-29T09:11:02;99936.83;;;7.35;58.40
62055;BME280;48653;51.742;-1.256;2023-12-29T09:13:27;99930.55;;;7.43;57.66
62055;BME280;48653;51.742;-1.256;2023-12-29T09:15:54;99933.23;;;7.11;59.00
62055;BME280;48653;51.742;-1.256;2023-12-29T09:18:18;99935.99;;;7.36;58.54
62055;BME280;48653;51.742;-1.256;2023-12-29T09:20:43;99936.69;;;7.02;59.33
62055;BME280;48653;51.742;-1.256;2023-12-29T09:23:08;99932.55;;;7.57;58.13
62055;BME280;48653;51.742;-1.256;2023-12-29T09:25:33;99943.91;;;7.97;56.53
62055;BME280;48653;51.742;-1.256;2023-12-29T09:28:03;99940.14;;;8.32;55.93
62055;BME280;48653;51.742;-1.256;2023-12-29T09:30:23;99943.25;;;7.25;57.52
62055;BME280;48653;51.742;-1.256;2023-12-29T09:32:48;99937.40;;;7.78;56.93
62055;BME280;48653;51.742;-1.256;2023-12-29T09:35:13;99940.70;;;7.22;58.23
62055;BME280;48653;51.742;-1.256;2023-12-29T09:37:40;99945.69;;;6.89;59.40
62055;BME280;48653;51.742;-1.256;2023-12-29T09:40:04;99934.27;;;7.07;58.79
62055;BME280;48653;51.742;-1.256;2023-12-29T09:42:29;99932.42;;;7.39;58.26
62055;BME280;48653;51.742;-1.256;2023-12-29T09:44:54;99938.05;;;8.02;56.51
62055;BME280;48653;51.742;-1.256;2023-12-29T09:47:22;99941.18;;;8.11;56.39
62055;BME280;48653;51.742;-1.256;2023-12-29T09:49:44;99935.31;;;7.43;57.31
62055;BME280;48653;51.742;-1.256;2023-12-29T09:52:11;99940.45;;;7.71;57.66
62055;BME280;48653;51.742;-1.256;2023-12-29T09:54:35;99954.69;;;7.49;57.98
62055;BME280;48653;51.742;-1.256;2023-12-29T09:56:59;99952.02;;;7.89;56.98
62055;BME280;48653;51.742;-1.256;2023-12-29T09:59:25;99958.26;;;8.07;57.31
62055;BME280;48653;51.742;-1.256;2023-12-29T10:01:50;99959.52;;;7.94;57.47
62055;BME280;48653;51.742;-1.256;2023-12-29T10:04:14;99962.18;;;7.23;59.62
62055;BME280;48653;51.742;-1.256;2023-12-29T10:06:43;99951.99;;;7.18;60.26
62055;BME280;48653;51.742;-1.256;2023-12-29T10:09:07;99941.08;;;7.75;58.85
62055;BME280;48653;51.742;-1.256;2023-12-29T10:11:30;99936.55;;;7.63;60.16
62055;BME280;48653;51.742;-1.256;2023-12-29T10:13:55;99937.83;;;7.76;59.50
62055;BME280;48653;51.742;-1.256;2023-12-29T10:16:29;99946.10;;;8.01;58.82
62055;BME280;48653;51.742;-1.256;2023-12-29T10:18:49;99952.99;;;7.99;59.51
62055;BME280;48653;51.742;-1.256;2023-12-29T10:21:19;99955.64;;;7.90;59.11
62055;BME280;48653;51.742;-1.256;2023-12-29T10:23:42;99949.04;;;7.71;61.19
62055;BME280;48653;51.742;-1.256;2023-12-29T10:26:01;99948.53;;;8.22;58.86
62055;BME280;48653;51.742;-1.256;2023-12-29T10:28:30;99945.22;;;8.43;58.50
62055;BME280;48653;51.742;-1.256;2023-12-29T10:30:51;99948.21;;;7.95;60.26
62055;BME280;48653;51.742;-1.256;2023-12-29T10:33:20;99949.33;;;8.75;58.08
62055;BME280;48653;51.742;-1.256;2023-12-29T10:35:57;99957.02;;;8.67;58.03
62055;BME280;48653;51.742;-1.256;2023-12-29T10:38:09;99964.29;;;8.81;57.33
62055;BME280;48653;51.742;-1.256;2023-12-29T10:40:31;99965.76;;;8.50;57.71
62055;BME280;48653;51.742;-1.256;2023-12-29T10:42:58;99963.57;;;8.53;57.69
62055;BME280;48653;51.742;-1.256;2023-12-29T10:45:21;99957.97;;;8.21;59.45
62055;BME280;48653;51.742;-1.256;2023-12-29T10:47:52;99946.36;;;8.81;58.44
62055;BME280;48653;51.742;-1.256;2023-12-29T10:50:11;99932.78;;;9.26;56.51
62055;BME280;48653;51.742;-1.256;2023-12-29T10:52:36;99930.83;;;8.59;58.52
62055;BME280;48653;51.742;-1.256;2023-12-29T10:55:06;99939.40;;;9.24;56.80
62055;BME280;48653;51.742;-1.256;2023-12-29T10:57:27;99927.86;;;8.71;57.37
62055;BME280;48653;51.742;-1.256;2023-12-29T10:59:55;99927.47;;;8.82;57.27
62055;BME280;48653;51.742;-1.256;2023-12-29T11:02:18;99928.54;;;8.65;58.81
62055;BME280;48653;51.742;-1.256;2023-12-29T11:04:43;99927.63;;;9.06;57.82
62055;BME280;48653;51.742;-1.256;2023-12-29T11:07:11;99930.60;;;8.57;58.37
62055;BME280;48653;51.742;-1.256;2023-12-29T11:09:33;99939.00;;;8.36;58.94
62055;BME280;48653;51.742;-1.256;2023-12-29T11:12:00;99937.96;;;8.36;60.33
62055;BME280;48653;51.742;-1.256;2023-12-29T11:14:23;99930.09;;;7.73;59.66
62055;BME280;48653;51.742;-1.256;2023-12-29T11:16:49;99926.85;;;7.00;60.66
62055;BME280;48653;51.742;-1.256;2023-12-29T11:19:15;99921.22;;;7.94;58.37
62055;BME280;48653;51.742;-1.256;2023-12-29T11:21:45;99927.30;;;7.76;58.58
62055;BME280;48653;51.742;-1.256;2023-12-29T11:24:04;99943.98;;;8.05;57.74
62055;BME280;48653;51.742;-1.256;2023-12-29T11:26:29;99957.41;;;7.76;57.42
62055;BME280;48653;51.742;-1.256;2023-12-29T11:28:54;99969.20;;;7.82;58.57
62055;BME280;48653;51.742;-1.256;2023-12-29T11:31:20;99976.69;;;8.04;58.56
62055;BME280;48653;51.742;-1.256;2023-12-29T11:33:50;99970.98;;;8.06;57.94
62055;BME280;48653;51.742;-1.256;2023-12-29T11:36:13;99969.75;;;7.29;59.61
62055;BME280;48653;51.742;-1.256;2023-12-29T11:38:47;99980.46;;;6.93;61.02
62055;BME280;48653;51.742;-1.256;2023-12-29T11:41:05;99982.93;;;7.16;61.56
62055;BME280;48653;51.742;-1.256;2023-12-29T11:43:25;99985.85;;;6.98;60.96
62055;BME280;48653;51.742;-1.256;2023-12-29T11:45:50;99988.40;;;6.86;62.06
62055;BME280;48653;51.742;-1.256;2023-12-29T11:50:40;99986.14;;;6.95;61.00
62055;BME280;48653;51.742;-1.256;2023-12-29T11:53:06;99988.34;;;7.66;60.67
62055;BME280;48653;51.742;-1.256;2023-12-29T11:55:37;99987.70;;;6.29;64.32
62055;BME280;48653;51.742;-1.256;2023-12-29T11:58:02;99976.19;;;7.20;62.01
62055;BME280;48653;51.742;-1.256;2023-12-29T12:02:47;99974.59;;;7.09;60.78
62055;BME280;48653;51.742;-1.256;2023-12-29T12:05:12;99976.83;;;7.14;60.36
62055;BME280;48653;51.742;-1.256;2023-12-29T12:12:38;99942.03;;;8.26;57.35
62055;BME280;48653;51.742;-1.256;2023-12-29T12:14:53;99928.88;;;8.60;55.29
62055;BME280;48653;51.742;-1.256;2023-12-29T12:17:27;99927.64;;;9.44;55.01
62055;BME280;48653;51.742;-1.256;2023-12-29T12:19:43;99924.51;;;10.00;52.39
62055;BME280;48653;51.742;-1.256;2023-12-29T12:22:09;99935.45;;;9.43;53.13
62055;BME280;48653;51.742;-1.256;2023-12-29T12:24:35;99935.54;;;9.13;53.97
62055;BME280;48653;51.742;-1.256;2023-12-29T12:26:59;99925.18;;;8.78;55.20
62055;BME280;48653;51.742;-1.256;2023-12-29T12:29:24;99925.00;;;9.40;52.37
62055;BME280;48653;51.742;-1.256;2023-12-29T12:31:55;99925.45;;;8.98;53.15
62055;BME280;48653;51.742;-1.256;2023-12-29T12:34:14;99919.82;;;8.42;53.96
62055;BME280;48653;51.742;-1.256;2023-12-29T12:36:51;99921.00;;;9.97;50.95
62055;BME280;48653;51.742;-1.256;2023-12-29T12:39:04;99918.39;;;10.02;51.15
62055;BME280;48653;51.742;-1.256;2023-12-29T12:41:29;99919.11;;;10.54;50.89
62055;BME280;48653;51.742;-1.256;2023-12-29T12:44:01;99916.36;;;10.05;51.21
62055;BME280;48653;51.742;-1.256;2023-12-29T12:46:23;99913.88;;;8.98;52.53
62055;BME280;48653;51.742;-1.256;2023-12-29T12:48:45;99913.51;;;9.62;51.92
62055;BME280;48653;51.742;-1.256;2023-12-29T12:51:10;99926.72;;;8.44;55.49
62055;BME280;48653;51.742;-1.256;2023-12-29T12:53:35;99929.53;;;8.81;54.24
62055;BME280;48653;51.742;-1.256;2023-12-29T12:56:00;99945.09;;;9.64;53.44
62055;BME280;48653;51.742;-1.256;2023-12-29T12:58:25;99957.14;;;7.82;57.22